Time;durP1;ratioP1;P1;durP2;ratioP2;P2;SDS_P1;SDS_P2;PMS_P1;PMS_P2;Temp;Humidity;BMP_temperature;BMP_pressure;BME280_temperature;BME280_humidity;BME280_pressure;Samples;Min_cycle;Max_cycle;Signal;HPM_P1;HPM_P2
2023/10/03 00:02:18;;;;;;;46.22;19.75;;;;;;;17.80;100.00;101027.13;5027764;28;20076;-72
2023/10/03 00:04:44;;;;;;;45.90;20.25;;;;;;;17.78;100.00;101021.03;5018075;28;20042;-75
2023/10/03 00:07:09;;;;;;;43.70;19.30;;;;;;;17.82;100.00;101010.78;5039978;28;20041;-72
2023/10/03 00:09:35;;;;;;;48.75;20.48;;;;;;;17.83;100.00;101002.59;5026016;28;21921;-73
2023/10/03 00:12:01;;;;;;;49.00;21.75;;;;;;;17.78;100.00;101002.16;5027091;28;20475;-73
2023/10/03 00:14:26;;;;;;;47.88;22.25;;;;;;;17.86;100.00;100993.34;5030896;28;20151;-73
2023/10/03 00:16:52;;;;;;;52.85;22.77;;;;;;;17.84;100.00;100989.94;5030643;28;20593;-73
2023/10/03 00:19:17;;;;;;;45.00;20.83;;;;;;;17.93;100.00;100993.66;5028868;28;20106;-73
2023/10/03 00:21:43;;;;;;;60.88;22.67;;;;;;;17.83;100.00;100989.09;5022697;28;20048;-74
2023/10/03 00:24:08;;;;;;;51.70;22.88;;;;;;;17.88;100.00;100980.59;5025310;28;20029;-74
2023/10/03 00:26:34;;;;;;;54.75;23.05;;;;;;;17.94;100.00;100982.72;5027060;28;27074;-74
2023/10/03 00:29:00;;;;;;;50.33;21.83;;;;;;;17.97;100.00;100974.34;5028381;28;20044;-73
2023/10/03 00:31:25;;;;;;;52.60;21.92;;;;;;;17.95;100.00;100972.78;5036707;28;20160;-73
2023/10/03 00:33:51;;;;;;;48.50;23.48;;;;;;;18.05;100.00;100960.13;5017027;28;20045;-74
2023/10/03 00:36:22;;;;;;;47.35;23.05;;;;;;;18.14;100.00;100953.03;5025609;28;20033;-73
2023/10/03 00:38:47;;;;;;;49.95;23.05;;;;;;;18.22;100.00;100943.19;5023053;28;20054;-73
2023/10/03 00:41:13;;;;;;;53.90;23.92;;;;;;;18.25;100.00;100924.03;5029772;28;20482;-74
2023/10/03 00:43:58;;;;;;;53.42;23.42;;;;;;;18.21;100.00;100925.28;5031767;28;20041;-73
2023/10/03 00:46:23;;;;;;;53.63;23.05;;;;;;;18.24;100.00;100922.31;5028207;28;20038;-73
2023/10/03 00:48:49;;;;;;;54.10;24.13;;;;;;;18.21;100.00;100929.84;5033075;28;20030;-73
2023/10/03 00:51:16;;;;;;;50.72;22.00;;;;;;;18.26;100.00;100919.47;5032840;28;20046;-74
2023/10/03 00:53:43;;;;;;;52.53;23.65;;;;;;;18.29;100.00;100911.09;5024922;28;20042;-73
2023/10/03 00:56:11;;;;;;;53.03;23.27;;;;;;;18.23;100.00;100911.69;5031180;28;20100;-73
2023/10/03 00:58:37;;;;;;;53.35;22.73;;;;;;;18.27;100.00;100910.38;5026037;28;20147;-73
2023/10/03 01:01:03;;;;;;;53.97;22.67;;;;;;;18.29;100.00;100901.13;5034217;28;20037;-72
2023/10/03 01:03:36;;;;;;;52.97;23.33;;;;;;;18.27;100.00;100889.66;5029382;28;20111;-72
2023/10/03 01:06:10;;;;;;;52.75;23.60;;;;;;;18.21;100.00;100894.75;5022438;28;21095;-74
2023/10/03 01:08:39;;;;;;;55.63;23.85;;;;;;;18.19;100.00;100885.97;5030288;28;20037;-73
2023/10/03 01:11:07;;;;;;;51.63;23.25;;;;;;;18.22;100.00;100885.66;5034676;28;20569;-73
2023/10/03 01:13:34;;;;;;;54.63;23.70;;;;;;;18.19;100.00;100870.63;5027811;28;20025;-73
2023/10/03 01:15:59;;;;;;;58.55;25.33;;;;;;;18.22;100.00;100861.38;5027949;28;20095;-74
2023/10/03 01:18:26;;;;;;;54.60;24.80;;;;;;;18.22;100.00;100862.22;5025932;28;20051;-75
2023/10/03 01:20:55;;;;;;;57.88;23.08;;;;;;;18.18;100.00;100849.19;5034561;28;20117;-73
2023/10/03 01:23:29;;;;;;;55.28;24.67;;;;;;;18.19;100.00;100843.63;5033197;28;20136;-73
2023/10/03 01:25:54;;;;;;;56.78;24.27;;;;;;;18.21;100.00;100840.78;5035457;28;20883;-73
2023/10/03 01:28:20;;;;;;;54.95;23.70;;;;;;;18.17;100.00;100845.59;5031162;28;20037;-74
2023/10/03 01:30:47;;;;;;;53.20;23.67;;;;;;;18.21;100.00;100832.66;5030751;28;20066;-73
2023/10/03 01:33:12;;;;;;;55.95;23.92;;;;;;;18.16;100.00;100813.38;5029624;28;24142;-72
2023/10/03 01:35:38;;;;;;;50.88;23.23;;;;;;;18.24;100.00;100811.66;5034274;28;20463;-73
2023/10/03 01:38:06;;;;;;;57.72;24.67;;;;;;;18.23;100.00;100809.09;5029434;28;20037;-74
2023/10/03 01:40:32;;;;;;;50.10;22.25;;;;;;;18.21;100.00;100800.28;5020115;28;20034;-74
2023/10/03 01:42:58;;;;;;;55.13;24.15;;;;;;;18.24;100.00;100806.25;5028127;28;20191;-73
2023/10/03 01:45:25;;;;;;;58.25;23.63;;;;;;;18.22;100.00;100788.47;5023798;28;20176;-73
2023/10/03 01:47:51;;;;;;;53.60;23.73;;;;;;;18.20;100.00;100787.78;5047197;28;20041;-73
2023/10/03 01:50:18;;;;;;;47.40;22.15;;;;;;;18.25;100.00;100772.00;5022967;28;20041;-74
2023/10/03 01:52:48;;;;;;;55.17;24.55;;;;;;;18.27;100.00;100778.97;5020150;28;20042;-74
2023/10/03 01:55:17;;;;;;;59.60;24.13;;;;;;;18.21;100.00;100776.00;5034329;28;20037;-73
2023/10/03 01:57:45;;;;;;;55.13;23.08;;;;;;;18.22;100.00;100762.34;5032330;28;21081;-74
2023/10/03 02:00:25;;;;;;;53.50;23.80;;;;;;;18.27;100.00;100760.06;5035305;28;20045;-73
2023/10/03 02:03:04;;;;;;;56.70;24.15;;;;;;;18.32;100.00;100759.59;5026824;28;20017;-73
2023/10/03 02:05:34;;;;;;;53.78;22.73;;;;;;;18.34;100.00;100747.66;5030188;28;20240;-73
2023/10/03 02:08:16;;;;;;;59.72;25.05;;;;;;;18.39;100.00;100760.72;5031713;28;20135;-73
2023/10/03 02:10:44;;;;;;;52.58;22.88;;;;;;;18.42;100.00;100754.16;5026861;28;20121;-73
2023/10/03 02:13:14;;;;;;;54.40;22.45;;;;;;;18.40;100.00;100750.75;5032167;28;20041;-73
2023/10/03 02:15:40;;;;;;;52.25;23.08;;;;;;;18.41;100.00;100736.25;5020445;28;20133;-73
2023/10/03 02:18:09;;;;;;;47.67;21.52;;;;;;;18.41;100.00;100730.84;5036583;28;20883;-73
2023/10/03 02:20:47;;;;;;;50.88;23.42;;;;;;;18.41;100.00;100718.19;5030616;28;20038;-73
2023/10/03 02:23:23;;;;;;;51.13;23.00;;;;;;;18.38;100.00;100715.81;5042734;28;20119;-73
2023/10/03 02:25:52;;;;;;;56.45;23.90;;;;;;;18.38;100.00;100705.03;5025854;28;20048;-73
2023/10/03 02:28:18;;;;;;;49.05;23.00;;;;;;;18.44;100.00;100719.75;5017305;28;20633;-72
2023/10/03 02:30:44;;;;;;;54.60;22.55;;;;;;;18.44;100.00;100722.47;5028761;28;20048;-73
2023/10/03 02:33:12;;;;;;;48.30;21.05;;;;;;;18.47;100.00;100717.59;5021180;28;20045;-72
2023/10/03 02:35:39;;;;;;;52.55;23.10;;;;;;;18.44;100.00;100711.66;5035096;28;20029;-74
2023/10/03 02:38:10;;;;;;;49.47;22.25;;;;;;;18.49;100.00;100703.94;5060109;28;20040;-73
2023/10/03 02:40:36;;;;;;;50.47;23.00;;;;;;;18.49;100.00;100712.06;5030163;28;20041;-73
2023/10/03 02:43:04;;;;;;;49.80;22.27;;;;;;;18.42;100.00;100706.38;5019418;28;20038;-73
2023/10/03 02:45:30;;;;;;;53.55;23.00;;;;;;;18.38;100.00;100686.13;5029739;28;20054;-73
2023/10/03 02:47:58;;;;;;;47.53;21.40;;;;;;;18.43;100.00;100689.22;5025621;28;20083;-74
2023/10/03 02:50:28;;;;;;;46.03;21.00;;;;;;;18.45;100.00;100699.84;5031607;28;20037;-73
2023/10/03 02:52:57;;;;;;;47.35;20.85;;;;;;;18.34;100.00;100690.97;5007146;28;20030;-72
2023/10/03 02:55:22;;;;;;;49.97;22.85;;;;;;;18.38;100.00;100681.56;5015239;28;20034;-73
2023/10/03 02:57:48;;;;;;;48.88;21.20;;;;;;;18.40;100.00;100691.34;5035763;28;20040;-74
2023/10/03 03:00:15;;;;;;;49.67;22.33;;;;;;;18.35;100.00;100687.25;5056286;28;20563;-74
2023/10/03 03:02:42;;;;;;;48.88;20.88;;;;;;;18.36;100.00;100674.59;5014654;28;20122;-73
2023/10/03 03:05:11;;;;;;;54.15;21.50;;;;;;;18.42;100.00;100689.34;5031279;28;20117;-73
2023/10/03 03:07:37;;;;;;;54.38;22.23;;;;;;;18.42;100.00;100701.00;5036220;28;20972;-74
2023/10/03 03:10:03;;;;;;;50.22;21.98;;;;;;;18.43;100.00;100708.13;5027265;28;20033;-73
2023/10/03 03:12:29;;;;;;;52.88;22.48;;;;;;;18.44;100.00;100699.00;5032667;28;20180;-73
2023/10/03 03:14:54;;;;;;;47.65;21.95;;;;;;;18.54;100.00;100713.28;5028456;28;20416;-73
2023/10/03 03:17:21;;;;;;;52.00;21.30;;;;;;;18.59;100.00;100713.69;5032595;28;20034;-73
2023/10/03 03:19:47;;;;;;;45.58;21.38;;;;;;;18.66;100.00;100711.22;5024327;28;20100;-73
2023/10/03 03:22:16;;;;;;;46.80;20.23;;;;;;;18.69;100.00;100710.97;5025931;28;20145;-73
2023/10/03 03:24:42;;;;;;;46.95;20.85;;;;;;;18.68;100.00;100709.25;5033747;28;20057;-74
2023/10/03 03:27:16;;;;;;;51.17;22.17;;;;;;;18.63;100.00;100704.28;5034687;28;20034;-74
2023/10/03 03:30:02;;;;;;;54.70;22.10;;;;;;;18.62;100.00;100708.00;5034264;28;20073;-73
2023/10/03 03:32:27;;;;;;;54.33;23.95;;;;;;;18.62;100.00;100701.72;5023834;28;20049;-73
2023/10/03 03:34:53;;;;;;;53.08;22.55;;;;;;;18.53;100.00;100699.97;5032448;28;20042;-74
2023/10/03 03:37:22;;;;;;;48.90;21.38;;;;;;;18.58;100.00;100697.66;5030294;28;20041;-73
2023/10/03 03:39:53;;;;;;;56.08;22.10;;;;;;;18.55;100.00;100693.38;5037913;28;20324;-73
2023/10/03 03:42:22;;;;;;;45.97;21.05;;;;;;;18.52;100.00;100690.13;5032839;28;20044;-73
2023/10/03 03:44:51;;;;;;;42.88;20.50;;;;;;;18.57;100.00;100693.22;5032985;28;20033;-74
2023/10/03 03:47:18;;;;;;;48.95;20.75;;;;;;;18.60;100.00;100690.22;5019511;28;20049;-74
2023/10/03 03:49:44;;;;;;;50.90;21.52;;;;;;;18.51;100.00;100688.44;5038193;28;20860;-73
2023/10/03 03:52:12;;;;;;;48.53;21.52;;;;;;;18.63;100.00;100693.47;5029899;28;20151;-73
2023/10/03 03:54:39;;;;;;;49.22;20.45;;;;;;;18.54;100.00;100683.59;5022571;28;20046;-73
2023/10/03 03:57:05;;;;;;;46.55;20.67;;;;;;;18.59;100.00;100680.44;5022533;28;20038;-73
2023/10/03 03:59:32;;;;;;;51.50;21.55;;;;;;;18.58;100.00;100679.59;5033299;28;20067;-73
2023/10/03 04:02:00;;;;;;;53.58;21.50;;;;;;;18.50;100.00;100682.19;5025702;28;20135;-73
2023/10/03 04:04:25;;;;;;;48.55;22.25;;;;;;;18.55;100.00;100671.78;5023830;28;20167;-74
2023/10/03 04:06:52;;;;;;;49.42;21.33;;;;;;;18.59;100.00;100678.56;5032958;28;20054;-74
2023/10/03 04:09:17;;;;;;;42.58;20.85;;;;;;;18.58;100.00;100679.59;5029674;28;20041;-73
2023/10/03 04:11:43;;;;;;;47.70;20.05;;;;;;;18.63;100.00;100679.13;5038932;28;20045;-73
2023/10/03 04:14:08;;;;;;;42.35;18.48;;;;;;;18.63;100.00;100685.38;5028638;28;20041;-73
2023/10/03 04:16:43;;;;;;;44.28;19.27;;;;;;;18.60;100.00;100691.06;5032959;28;20056;-74
2023/10/03 04:19:10;;;;;;;47.45;19.13;;;;;;;18.70;100.00;100685.63;5025023;28;20063;-73
2023/10/03 04:21:36;;;;;;;44.38;18.75;;;;;;;18.75;100.00;100688.72;5030803;28;20050;-74
2023/10/03 04:24:02;;;;;;;43.22;18.80;;;;;;;18.79;100.00;100694.69;5026933;28;20136;-73
2023/10/03 04:26:28;;;;;;;39.85;18.98;;;;;;;18.75;100.00;100698.69;5033662;28;20116;-72
2023/10/03 04:28:54;;;;;;;48.78;18.92;;;;;;;18.72;100.00;100702.53;5029369;28;20042;-73
2023/10/03 04:31:19;;;;;;;44.03;18.80;;;;;;;18.74;100.00;100702.41;5027972;28;20041;-73
2023/10/03 04:33:45;;;;;;;42.97;17.92;;;;;;;18.81;100.00;100692.66;5030218;28;20041;-74
2023/10/03 04:36:15;;;;;;;44.95;19.85;;;;;;;18.81;100.00;100696.22;5033514;28;20029;-73
2023/10/03 04:38:40;;;;;;;43.67;17.88;;;;;;;18.89;100.00;100707.09;5030890;28;20120;-73
2023/10/03 04:41:09;;;;;;;39.67;17.25;;;;;;;18.91;100.00;100701.53;5033245;28;20100;-72
2023/10/03 04:43:35;;;;;;;37.72;15.88;;;;;;;19.00;100.00;100707.88;5022276;28;20041;-73
2023/10/03 04:46:04;;;;;;;38.10;16.70;;;;;;;19.03;100.00;100696.75;5029712;28;20106;-73
2023/10/03 04:48:30;;;;;;;36.05;15.43;;;;;;;19.09;100.00;100706.94;5023517;28;20059;-73
2023/10/03 04:50:57;;;;;;;36.67;14.57;;;;;;;19.17;100.00;100717.81;5024545;28;20050;-73
2023/10/03 04:53:23;;;;;;;32.10;15.20;;;;;;;19.16;100.00;100713.41;5026591;28;21126;-74
2023/10/03 04:55:48;;;;;;;37.55;15.77;;;;;;;19.15;100.00;100714.44;5032270;28;20033;-73
2023/10/03 04:58:14;;;;;;;38.03;14.95;;;;;;;19.14;100.00;100705.47;5039373;28;23113;-74
2023/10/03 05:00:42;;;;;;;37.40;14.75;;;;;;;19.17;100.00;100714.25;5029328;28;20052;-73
2023/10/03 05:03:11;;;;;;;32.47;14.50;;;;;;;19.16;100.00;100721.53;5031388;28;20958;-73
2023/10/03 05:05:38;;;;;;;28.35;13.23;;;;;;;19.14;100.00;100715.44;5022953;28;20045;-73
2023/10/03 05:08:04;;;;;;;30.83;13.43;;;;;;;19.16;100.00;100726.94;5030199;28;20038;-73
2023/10/03 05:10:30;;;;;;;38.20;12.52;;;;;;;19.16;100.00;100721.53;5025705;28;20036;-73
2023/10/03 05:12:57;;;;;;;24.27;11.52;;;;;;;19.15;100.00;100728.78;5026593;28;20053;-73
2023/10/03 05:15:26;;;;;;;30.80;11.73;;;;;;;19.09;100.00;100742.94;5032197;28;20471;-73
2023/10/03 05:17:52;;;;;;;22.38;10.70;;;;;;;19.05;100.00;100743.41;5034933;28;20073;-74
2023/10/03 05:20:18;;;;;;;28.77;11.52;;;;;;;19.06;100.00;100753.19;5030354;28;20034;-73
2023/10/03 05:22:45;;;;;;;24.60;11.10;;;;;;;19.04;100.00;100745.25;5027316;28;20997;-73
2023/10/03 05:25:12;;;;;;;29.65;10.70;;;;;;;19.12;100.00;100752.56;5023263;28;20040;-73
2023/10/03 05:27:41;;;;;;;21.35;10.55;;;;;;;19.09;100.00;100767.25;5028730;28;20115;-74
2023/10/03 05:30:08;;;;;;;21.85;9.00;;;;;;;19.11;100.00;100765.25;5032982;28;20044;-74
2023/10/03 05:32:38;;;;;;;27.90;10.00;;;;;;;19.15;100.00;100765.78;5030401;28;20049;-74
2023/10/03 05:35:05;;;;;;;21.63;9.10;;;;;;;19.09;100.00;100761.84;5030771;28;20079;-73
2023/10/03 05:37:34;;;;;;;19.42;9.07;;;;;;;18.97;100.00;100757.66;5021530;28;20088;-73
2023/10/03 05:40:15;;;;;;;22.92;8.95;;;;;;;18.98;100.00;100777.47;5044913;28;20140;-73
2023/10/03 05:42:45;;;;;;;26.58;8.77;;;;;;;18.96;100.00;100787.56;5027017;28;20049;-73
2023/10/03 05:45:12;;;;;;;19.02;8.85;;;;;;;18.96;100.00;100782.16;5022256;28;20091;-73
2023/10/03 05:47:46;;;;;;;19.30;8.55;;;;;;;18.99;100.00;100795.38;5023945;28;20392;-73
2023/10/03 05:50:15;;;;;;;15.95;7.70;;;;;;;18.97;100.00;100792.78;5024914;28;20041;-73
2023/10/03 05:52:43;;;;;;;11.70;7.13;;;;;;;19.07;100.00;100800.84;5027779;28;20042;-73
2023/10/03 05:55:09;;;;;;;18.00;7.95;;;;;;;19.06;100.00;100791.03;5023212;28;20033;-73
2023/10/03 05:57:37;;;;;;;26.05;7.53;;;;;;;19.08;100.00;100795.31;5022078;28;20026;-73
2023/10/03 06:00:04;;;;;;;16.75;7.03;;;;;;;18.95;100.00;100784.00;5030014;28;20040;-74
2023/10/03 06:02:32;;;;;;;16.08;8.10;;;;;;;18.97;100.00;100791.94;5018803;28;20116;-73
2023/10/03 06:04:58;;;;;;;14.55;7.35;;;;;;;18.99;100.00;100798.06;5029714;28;20884;-73
2023/10/03 06:07:23;;;;;;;22.98;7.25;;;;;;;18.99;100.00;100801.63;5024927;28;20111;-74
2023/10/03 06:09:48;;;;;;;13.70;7.18;;;;;;;18.96;100.00;100812.72;5027172;28;20866;-74
2023/10/03 06:12:14;;;;;;;19.52;8.18;;;;;;;19.02;100.00;100819.38;5041913;28;20042;-73
2023/10/03 06:14:40;;;;;;;18.00;7.97;;;;;;;19.00;100.00;100813.28;5058698;28;20897;-73
2023/10/03 06:17:07;;;;;;;16.20;7.75;;;;;;;19.04;100.00;100811.97;5054310;28;20038;-74
2023/10/03 06:19:33;;;;;;;18.42;7.22;;;;;;;19.03;100.00;100807.59;5019875;28;20069;-73
2023/10/03 06:21:58;;;;;;;25.92;8.57;;;;;;;19.04;100.00;100818.22;5025836;28;20041;-73
2023/10/03 06:24:25;;;;;;;20.98;7.63;;;;;;;19.03;100.00;100818.41;5029807;28;20040;-72
2023/10/03 06:26:50;;;;;;;15.30;7.78;;;;;;;18.96;100.00;100801.06;5027248;28;20076;-74
2023/10/03 06:29:16;;;;;;;16.17;7.18;;;;;;;19.01;100.00;100813.13;5032218;28;20040;-74
2023/10/03 06:31:43;;;;;;;14.23;7.25;;;;;;;19.03;100.00;100816.53;5027413;28;20041;-73
2023/10/03 06:34:09;;;;;;;15.10;8.00;;;;;;;19.10;100.00;100824.88;5037099;28;20063;-73
2023/10/03 06:36:34;;;;;;;21.83;7.50;;;;;;;18.99;100.00;100820.53;5024103;28;20045;-73
2023/10/03 06:39:00;;;;;;;21.35;8.00;;;;;;;18.97;100.00;100817.13;5026708;28;20087;-74
2023/10/03 06:41:26;;;;;;;20.08;7.93;;;;;;;19.03;100.00;100826.50;5030585;28;20042;-74
2023/10/03 06:43:52;;;;;;;16.58;7.80;;;;;;;19.11;100.00;100832.81;5031101;28;20475;-73
2023/10/03 06:46:18;;;;;;;17.20;8.48;;;;;;;19.11;100.00;100824.72;5025910;28;20041;-73
2023/10/03 06:48:46;;;;;;;17.52;8.30;;;;;;;19.15;100.00;100836.06;5018872;28;20042;-74
2023/10/03 06:51:12;;;;;;;18.48;8.25;;;;;;;19.37;100.00;100827.50;5024843;28;20067;-73
2023/10/03 06:53:38;;;;;;;16.25;7.93;;;;;;;19.47;100.00;100831.97;5029595;28;20138;-73
2023/10/03 06:56:04;;;;;;;22.15;9.23;;;;;;;19.41;100.00;100833.47;5031145;28;20033;-73
2023/10/03 06:58:30;;;;;;;18.55;7.95;;;;;;;19.38;100.00;100850.84;5028100;28;20029;-74
2023/10/03 07:00:56;;;;;;;17.38;7.40;;;;;;;19.45;100.00;100844.81;5031766;28;20036;-74
2023/10/03 07:03:23;;;;;;;16.92;8.30;;;;;;;19.37;100.00;100848.28;5025068;28;20084;-73
2023/10/03 07:05:48;;;;;;;17.95;8.32;;;;;;;19.39;100.00;100847.16;5032066;28;20108;-73
2023/10/03 07:08:14;;;;;;;13.68;8.13;;;;;;;19.44;100.00;100851.25;5030417;28;20042;-73
2023/10/03 07:10:43;;;;;;;12.68;7.40;;;;;;;19.58;100.00;100858.81;5018655;28;20040;-73
2023/10/03 07:13:12;;;;;;;17.75;7.93;;;;;;;19.63;100.00;100861.94;5038860;28;20028;-74
2023/10/03 07:15:39;;;;;;;17.00;8.07;;;;;;;19.60;100.00;100857.69;5031258;28;20138;-73
2023/10/03 07:18:05;;;;;;;15.85;8.13;;;;;;;19.78;100.00;100862.22;5030503;28;20037;-74
2023/10/03 07:20:30;;;;;;;15.15;7.97;;;;;;;19.74;100.00;100867.09;5034683;28;20029;-74
2023/10/03 07:22:56;;;;;;;19.38;8.57;;;;;;;19.84;100.00;100865.16;5033938;28;20033;-73
2023/10/03 07:25:21;;;;;;;14.18;7.72;;;;;;;19.89;100.00;100868.25;5021667;28;20042;-73
2023/10/03 07:27:48;;;;;;;15.80;7.38;;;;;;;19.90;100.00;100877.22;5026655;28;20037;-73
2023/10/03 07:30:17;;;;;;;19.48;9.05;;;;;;;19.85;100.00;100891.22;5034431;28;20034;-74
2023/10/03 07:32:45;;;;;;;18.40;8.20;;;;;;;19.84;100.00;100894.09;5033805;28;20037;-73
2023/10/03 07:35:13;;;;;;;16.30;8.55;;;;;;;19.64;100.00;100886.13;5027807;28;20033;-73
2023/10/03 07:37:39;;;;;;;16.95;9.35;;;;;;;19.77;100.00;100888.44;5030995;28;20088;-73
2023/10/03 07:40:06;;;;;;;14.07;8.73;;;;;;;19.63;100.00;100883.59;5025397;28;20033;-74
2023/10/03 07:42:32;;;;;;;17.35;8.20;;;;;;;19.73;100.00;100891.59;5030190;28;20041;-73
2023/10/03 07:44:58;;;;;;;16.85;8.55;;;;;;;19.68;100.00;100889.38;5031485;28;20119;-73
2023/10/03 07:47:23;;;;;;;17.55;8.57;;;;;;;19.63;100.00;100879.03;5032371;28;20055;-73
2023/10/03 07:49:48;;;;;;;19.58;8.70;;;;;;;19.60;100.00;100875.78;5032711;28;20038;-74
2023/10/03 07:52:17;;;;;;;17.10;9.05;;;;;;;19.60;100.00;100876.63;5033626;28;20057;-73
2023/10/03 07:54:54;;;;;;;25.33;8.95;;;;;;;19.59;100.00;100882.16;5027839;28;20148;-74
2023/10/03 07:57:23;;;;;;;18.35;8.82;;;;;;;19.53;100.00;100886.34;5022529;28;20041;-73
2023/10/03 07:59:50;;;;;;;14.93;8.43;;;;;;;19.42;100.00;100900.91;5033143;28;20092;-73
2023/10/03 08:02:16;;;;;;;15.43;8.07;;;;;;;19.42;100.00;100902.75;5028784;28;20138;-73
2023/10/03 08:04:43;;;;;;;20.35;8.70;;;;;;;19.37;100.00;100922.16;5041293;28;20041;-73
2023/10/03 08:07:14;;;;;;;23.95;9.02;;;;;;;19.24;100.00;100934.34;5063884;28;20063;-73
2023/10/03 08:09:46;;;;;;;20.88;8.15;;;;;;;18.92;100.00;100951.00;5025623;28;20026;-73
2023/10/03 08:12:12;;;;;;;16.90;7.60;;;;;;;18.68;100.00;100941.59;5022507;28;20045;-75
2023/10/03 08:14:39;;;;;;;11.25;6.05;;;;;;;18.71;100.00;100953.94;5022386;28;20034;-74
2023/10/03 08:17:05;;;;;;;12.25;5.70;;;;;;;18.59;100.00;100962.19;5029993;28;21129;-73
2023/10/03 08:19:30;;;;;;;15.00;6.32;;;;;;;18.44;100.00;100973.59;5036299;28;20061;-73
2023/10/03 08:21:58;;;;;;;10.63;7.85;;;;;;;18.26;100.00;100968.06;5027614;28;20037;-73
2023/10/03 08:24:25;;;;;;;11.40;5.88;;;;;;;18.44;100.00;100987.94;5030457;28;20060;-73
2023/10/03 08:26:51;;;;;;;14.82;6.55;;;;;;;18.63;100.00;100981.66;5034603;28;20140;-73
2023/10/03 08:29:23;;;;;;;10.07;5.32;;;;;;;18.75;100.00;100975.09;5033293;28;20875;-73
2023/10/03 08:31:58;;;;;;;12.68;4.82;;;;;;;18.80;100.00;100982.75;5032832;28;20569;-73
2023/10/03 08:34:25;;;;;;;12.05;4.63;;;;;;;18.81;100.00;100988.00;5030248;28;20117;-73
2023/10/03 08:37:00;;;;;;;14.10;4.85;;;;;;;18.99;100.00;100990.81;5030171;28;20037;-73
2023/10/03 08:39:26;;;;;;;8.55;4.32;;;;;;;19.23;100.00;101003.81;5027790;28;20033;-73
2023/10/03 08:42:13;;;;;;;10.55;4.10;;;;;;;19.44;100.00;101005.41;5018990;28;20927;-73
2023/10/03 08:44:52;;;;;;;11.25;4.50;;;;;;;19.69;100.00;101002.03;5029848;28;20032;-73
2023/10/03 08:47:29;;;;;;;9.38;4.13;;;;;;;19.80;100.00;101003.66;5027686;28;20029;-74
2023/10/03 08:50:14;;;;;;;10.38;3.40;;;;;;;19.59;100.00;101022.84;5033504;28;20085;-73
2023/10/03 08:52:46;;;;;;;9.05;2.63;;;;;;;19.54;100.00;101009.75;5033962;28;20045;-73
2023/10/03 08:55:19;;;;;;;4.97;2.22;;;;;;;19.31;100.00;101016.56;5025907;28;20048;-73
2023/10/03 08:57:47;;;;;;;9.75;3.15;;;;;;;19.43;100.00;101023.50;5035405;28;21122;-73
2023/10/03 09:00:13;;;;;;;6.88;2.10;;;;;;;19.47;100.00;101034.84;5030889;28;20197;-74
2023/10/03 09:02:47;;;;;;;6.82;2.42;;;;;;;19.47;100.00;101038.41;5029434;28;20080;-73
2023/10/03 09:05:19;;;;;;;9.63;3.40;;;;;;;19.34;100.00;101051.44;5035358;28;20042;-74
2023/10/03 09:07:48;;;;;;;;;;;;;;;19.08;100.00;101048.56;5031635;28;20037;-74
2023/10/03 09:10:24;;;;;;;8.85;3.22;;;;;;;18.86;100.00;101055.13;5023407;28;19917;-74
2023/10/03 09:13:04;;;;;;;7.85;2.90;;;;;;;18.62;100.00;101080.75;5028564;28;21001;-74
2023/10/03 09:15:42;;;;;;;6.65;2.58;;;;;;;18.51;100.00;101096.22;5030785;28;20493;-73
2023/10/03 09:18:10;;;;;;;8.75;2.88;;;;;;;18.41;100.00;101115.13;5032175;28;20207;-73
2023/10/03 09:20:36;;;;;;;5.22;2.10;;;;;;;18.42;100.00;101113.28;5026587;28;20045;-73
2023/10/03 09:23:07;;;;;;;6.70;2.63;;;;;;;18.10;100.00;101128.75;5028289;28;20037;-73
2023/10/03 09:25:35;;;;;;;5.75;2.55;;;;;;;18.16;100.00;101135.41;5021660;28;20041;-73
2023/10/03 09:28:07;;;;;;;6.00;1.92;;;;;;;18.28;100.00;101144.28;5022607;28;20045;-74
2023/10/03 09:30:40;;;;;;;5.07;2.22;;;;;;;18.27;100.00;101142.53;5033617;28;20041;-73
2023/10/03 09:33:09;;;;;;;6.55;2.60;;;;;;;18.26;100.00;101143.53;5031971;28;20211;-73
2023/10/03 09:35:36;;;;;;;9.13;2.55;;;;;;;18.13;100.00;101141.13;5026340;28;20049;-73
2023/10/03 09:38:08;;;;;;;9.32;2.75;;;;;;;18.10;100.00;101152.19;5024610;28;20079;-73
2023/10/03 09:40:49;;;;;;;7.85;2.10;;;;;;;18.06;100.00;101159.69;5029004;28;21170;-73
2023/10/03 09:43:27;;;;;;;5.05;2.53;;;;;;;18.26;100.00;101155.19;5063142;28;21025;-73
2023/10/03 09:45:56;;;;;;;6.93;2.03;;;;;;;18.35;100.00;101162.47;5024445;28;20041;-73
2023/10/03 09:48:25;;;;;;;5.03;1.60;;;;;;;18.31;100.00;101170.97;5030759;28;20041;-73
2023/10/03 09:50:55;;;;;;;3.38;1.90;;;;;;;18.33;100.00;101164.47;5027127;28;20060;-73
2023/10/03 09:53:30;;;;;;;5.00;1.67;;;;;;;18.58;100.00;101168.47;5032471;28;20042;-74
2023/10/03 09:55:56;;;;;;;6.95;1.98;;;;;;;18.79;100.00;101162.09;5022968;28;20047;-73
2023/10/03 09:58:31;;;;;;;9.75;2.28;;;;;;;19.01;100.00;101163.63;5026425;28;20044;-73
2023/10/03 10:00:57;;;;;;;6.10;2.22;;;;;;;19.13;100.00;101187.69;5026178;28;20040;-73
2023/10/03 10:03:37;;;;;;;9.00;2.35;;;;;;;19.34;100.00;101209.13;5028292;28;20049;-73
2023/10/03 10:06:12;;;;;;;6.07;1.88;;;;;;;19.30;100.00;101185.22;5025048;28;20061;-73
2023/10/03 10:08:48;;;;;;;6.45;2.33;;;;;;;19.53;100.00;101180.31;5030233;28;20045;-73
2023/10/03 10:11:14;;;;;;;3.50;1.65;;;;;;;19.63;100.00;101154.16;5031611;28;20111;-74
2023/10/03 10:14:09;;;;;;;7.20;1.75;;;;;;;19.85;100.00;101166.44;5030813;28;20087;-72
2023/10/03 10:17:03;;;;;;;6.82;1.50;;;;;;;19.46;100.00;101187.31;5026880;28;20084;-73
2023/10/03 10:20:07;;;;;;;5.82;2.03;;;;;;;19.34;100.00;101190.22;5024246;28;20026;-73
2023/10/03 10:22:59;;;;;;;4.78;1.52;;;;;;;19.12;100.00;101214.84;5031068;28;20038;-73
2023/10/03 10:25:37;;;;;;;7.03;1.80;;;;;;;18.64;100.00;101211.13;5022765;28;20148;-74
2023/10/03 10:28:05;;;;;;;5.63;1.50;;;;;;;18.46;100.00;101218.19;5032126;28;20033;-73
2023/10/03 10:30:44;;;;;;;2.05;1.30;;;;;;;18.40;100.00;101239.50;5032110;28;20054;-73
2023/10/03 10:33:22;;;;;;;5.50;1.85;;;;;;;18.37;100.00;101240.63;5043057;28;20049;-73
2023/10/03 10:36:03;;;;;;;8.23;2.28;;;;;;;18.35;100.00;101234.50;5038775;28;20072;-74
2023/10/03 10:38:31;;;;;;;4.35;0.93;;;;;;;18.61;100.00;101241.09;5031085;28;20119;-73
2023/10/03 10:41:12;;;;;;;4.53;1.30;;;;;;;18.89;100.00;101244.88;5024604;28;20108;-74
2023/10/03 10:44:08;;;;;;;2.80;1.27;;;;;;;18.97;100.00;101252.25;5019447;28;20041;-73
2023/10/03 10:46:49;;;;;;;4.50;1.35;;;;;;;18.96;100.00;101260.53;5030183;28;20940;-73
2023/10/03 10:49:34;;;;;;;4.07;1.13;;;;;;;18.98;100.00;101275.63;5038642;28;20128;-74
2023/10/03 10:52:10;;;;;;;2.38;1.00;;;;;;;19.05;100.00;101271.34;5027075;28;21175;-73
2023/10/03 10:54:42;;;;;;;3.75;1.13;;;;;;;19.06;100.00;101272.19;5029374;28;20037;-73
2023/10/03 10:57:14;;;;;;;2.72;1.13;;;;;;;18.87;100.00;101267.63;5023970;28;20974;-73
2023/10/03 10:59:40;;;;;;;2.78;1.00;;;;;;;18.93;100.00;101275.19;5032722;28;20038;-73
2023/10/03 11:02:26;;;;;;;4.35;1.20;;;;;;;19.26;100.00;101273.91;5024622;28;20041;-73
2023/10/03 11:04:56;;;;;;;3.05;1.30;;;;;;;19.50;100.00;101286.13;5033360;28;20049;-73
2023/10/03 11:07:23;;;;;;;5.00;1.20;;;;;;;19.69;100.00;101290.69;5030237;28;20042;-73
2023/10/03 11:09:50;;;;;;;4.65;1.35;;;;;;;19.57;100.00;101290.81;5033642;28;20080;-73
2023/10/03 11:12:26;;;;;;;5.07;1.00;;;;;;;19.46;100.00;101293.69;5035823;28;20246;-73
2023/10/03 11:14:55;;;;;;;6.63;1.40;;;;;;;19.36;100.00;101290.97;5034228;28;20044;-74
2023/10/03 11:17:25;;;;;;;6.25;1.77;;;;;;;19.14;100.00;101292.13;5031178;28;20037;-73